Time;durP1;ratioP1;P1;durP2;ratioP2;P2;SDS_P1;SDS_P2;PMS_P1;PMS_P2;Temp;Humidity;BMP_temperature;BMP_pressure;BME280_temperature;BME280_humidity;BME280_pressure;Samples;Min_cycle;Max_cycle;Signal;HPM_P1;HPM_P2
2023/02/18 00:01:15;;;;;;;46.23;28.17;;;6.00;86.10;;;;;;4948869;28;20298;-81
2023/02/18 00:03:43;;;;;;;46.20;28.07;;;6.00;86.60;;;;;;4957720;28;20202;-80
2023/02/18 00:06:15;;;;;;;39.40;26.73;;;5.90;86.70;;;;;;4933085;29;20209;-81
2023/02/18 00:08:44;;;;;;;42.53;29.87;;;5.90;86.50;;;;;;4952692;28;20653;-80
2023/02/18 00:11:11;;;;;;;48.17;31.07;;;5.80;86.30;;;;;;4951103;29;20209;-80
2023/02/18 00:13:39;;;;;;;41.77;29.27;;;5.80;86.50;;;;;;4936673;29;20261;-81
2023/02/18 00:16:12;;;;;;;48.80;32.80;;;5.80;86.80;;;;;;4941738;28;20210;-81
2023/02/18 00:18:41;;;;;;;53.50;32.50;;;5.70;87.00;;;;;;4930776;29;20656;-80
2023/02/18 00:21:08;;;;;;;53.50;33.57;;;5.70;87.40;;;;;;4950867;28;20666;-81
2023/02/18 00:23:35;;;;;;;47.63;30.53;;;5.70;87.80;;;;;;4944686;28;20272;-80
2023/02/18 00:26:05;;;;;;;47.37;32.37;;;5.70;88.10;;;;;;4928741;28;20586;-81
2023/02/18 00:28:33;;;;;;;48.17;30.30;;;5.60;87.90;;;;;;4943360;28;20210;-80
2023/02/18 00:31:28;;;;;;;45.70;31.57;;;5.60;88.40;;;;;;4937558;28;20201;-81
2023/02/18 00:33:58;;;;;;;51.60;31.83;;;5.50;87.70;;;;;;4950488;28;20265;-80
2023/02/18 00:36:27;;;;;;;50.93;33.27;;;5.40;87.50;;;;;;4932954;29;20611;-80
2023/02/18 00:38:59;;;;;;;50.63;32.83;;;5.30;87.50;;;;;;4935220;28;20237;-81
2023/02/18 00:41:29;;;;;;;45.47;31.20;;;5.20;87.40;;;;;;4960518;28;20643;-80
2023/02/18 00:43:56;;;;;;;47.47;33.33;;;5.10;87.50;;;;;;4950565;28;20201;-80
2023/02/18 00:46:24;;;;;;;48.77;32.63;;;5.10;87.60;;;;;;4925200;29;20245;-80
2023/02/18 00:48:53;;;;;;;48.53;32.43;;;5.00;87.60;;;;;;4939585;28;20229;-81
2023/02/18 00:51:21;;;;;;;50.37;32.20;;;5.00;87.50;;;;;;4941389;28;20702;-81
2023/02/18 00:53:50;;;;;;;49.30;32.53;;;4.90;87.40;;;;;;4938871;29;20715;-80
2023/02/18 00:56:18;;;;;;;48.93;33.07;;;4.90;87.60;;;;;;4949727;28;20207;-80
2023/02/18 00:58:45;;;;;;;53.77;35.17;;;4.90;87.70;;;;;;4949128;28;20260;-81
2023/02/18 01:01:13;;;;;;;48.30;32.60;;;4.80;87.80;;;;;;4958234;28;20197;-81
2023/02/18 01:03:41;;;;;;;47.97;31.43;;;4.80;87.90;;;;;;4937658;29;20300;-81
2023/02/18 01:06:10;;;;;;;48.23;30.23;;;4.70;87.90;;;;;;4956979;28;20300;-80
2023/02/18 01:08:38;;;;;;;46.60;31.53;;;4.70;87.90;;;;;;4940478;28;20297;-80
2023/02/18 01:11:08;;;;;;;42.53;29.37;;;4.60;87.60;;;;;;4962019;28;20206;-80
2023/02/18 01:13:38;;;;;;;46.73;33.07;;;4.60;87.50;;;;;;4929388;28;20229;-80
2023/02/18 01:16:06;;;;;;;41.80;31.07;;;4.60;87.60;;;;;;4926660;29;20272;-81
2023/02/18 01:18:35;;;;;;;42.43;31.33;;;4.50;87.70;;;;;;4953693;28;20200;-80
2023/02/18 01:21:07;;;;;;;42.23;31.30;;;4.50;87.90;;;;;;4955786;28;20241;-81
2023/02/18 01:23:39;;;;;;;42.90;31.17;;;4.50;88.00;;;;;;4931226;29;20287;-80
2023/02/18 01:26:07;;;;;;;42.47;30.90;;;4.40;87.60;;;;;;4947387;28;20256;-81
2023/02/18 01:28:37;;;;;;;44.13;31.93;;;4.40;87.60;;;;;;4948613;28;20204;-80
2023/02/18 01:31:10;;;;;;;42.57;30.17;;;4.30;88.10;;;;;;4941084;28;20237;-81
2023/02/18 01:33:39;;;;;;;43.83;30.43;;;4.30;88.40;;;;;;4937131;29;20256;-80
2023/02/18 01:36:07;;;;;;;47.43;33.63;;;4.20;88.40;;;;;;4957120;28;20225;-80
2023/02/18 01:38:35;;;;;;;52.70;34.67;;;4.20;88.40;;;;;;4959457;28;20209;-80
2023/02/18 01:41:02;;;;;;;101.80;36.77;;;4.20;88.20;;;;;;4930539;28;20225;-80
2023/02/18 01:43:31;;;;;;;53.83;35.53;;;4.20;87.80;;;;;;4953325;28;20301;-80
2023/02/18 01:46:19;;;;;;;44.67;32.83;;;4.10;87.50;;;;;;4958463;28;20201;-81
2023/02/18 01:48:49;;;;;;;41.73;29.60;;;4.00;87.60;;;;;;4956742;28;20232;-80
2023/02/18 01:51:26;;;;;;;45.77;33.53;;;4.00;87.70;;;;;;4941590;29;20205;-81
2023/02/18 01:54:10;;;;;;;48.43;33.90;;;3.90;87.70;;;;;;4949982;28;20265;-81
2023/02/18 01:56:50;;;;;;;46.97;32.23;;;3.90;88.10;;;;;;4953691;28;20208;-81
2023/02/18 01:59:24;;;;;;;54.17;37.53;;;3.90;88.30;;;;;;4960954;28;20314;-81
2023/02/18 02:01:52;;;;;;;54.80;37.67;;;3.90;88.70;;;;;;4958367;28;20222;-80
2023/02/18 02:04:20;;;;;;;61.27;39.67;;;3.80;88.50;;;;;;4947302;29;20241;-80
2023/02/18 02:06:47;;;;;;;54.27;36.80;;;3.80;87.80;;;;;;4952558;28;20669;-81
2023/02/18 02:09:17;;;;;;;54.63;37.13;;;3.70;87.80;;;;;;4950210;28;20580;-81
2023/02/18 02:11:46;;;;;;;50.67;35.67;;;3.70;88.30;;;;;;4941796;29;20212;-80
2023/02/18 02:14:28;;;;;;;47.23;34.80;;;3.60;88.40;;;;;;4960942;28;20217;-81
2023/02/18 02:17:18;;;;;;;46.70;33.73;;;3.60;88.40;;;;;;4947430;28;20217;-80
2023/02/18 02:20:13;;;;;;;46.30;33.23;;;3.60;88.40;;;;;;4965356;28;20224;-80
2023/02/18 02:22:46;;;;;;;57.57;33.50;;;3.60;88.80;;;;;;4955346;28;20217;-81
2023/02/18 02:25:18;;;;;;;51.30;33.43;;;3.60;88.80;;;;;;4955687;28;20293;-81
2023/02/18 02:28:01;;;;;;;212.60;33.47;;;3.60;88.70;;;;;;4945338;28;20223;-81
2023/02/18 02:30:49;;;;;;;44.27;32.47;;;3.50;88.70;;;;;;4944369;28;20220;-80
2023/02/18 02:33:25;;;;;;;47.93;35.43;;;3.50;89.10;;;;;;4958343;28;20213;-81
2023/02/18 02:36:21;;;;;;;44.67;32.80;;;3.40;89.20;;;;;;4946053;28;20210;-80
2023/02/18 02:38:57;;;;;;;37.07;27.67;;;3.40;89.60;;;;;;4951925;28;20262;-80
2023/02/18 02:41:50;;;;;;;40.83;30.77;;;3.40;89.90;;;;;;4956158;28;20702;-80
2023/02/18 02:44:30;;;;;;;42.57;30.93;;;3.50;90.00;;;;;;4932452;29;20280;-80
2023/02/18 02:47:05;;;;;;;45.63;33.10;;;3.50;90.00;;;;;;4954145;28;20208;-80
2023/02/18 02:50:28;;;;;;;50.07;34.97;;;3.50;89.70;;;;;;4948886;28;20248;-80
2023/02/18 02:53:01;;;;;;;40.37;30.47;;;3.50;89.50;;;;;;4917261;29;20738;-80
2023/02/18 02:55:31;;;;;;;42.67;29.77;;;3.50;89.30;;;;;;4941404;29;20276;-80
2023/02/18 02:57:58;;;;;;;46.10;31.73;;;3.60;89.20;;;;;;4936586;28;20299;-81
2023/02/18 03:00:57;;;;;;;42.40;31.87;;;3.50;89.20;;;;;;4933477;29;20560;-80
2023/02/18 03:04:00;;;;;;;43.57;31.30;;;3.50;89.50;;;;;;4955715;28;20223;-79
2023/02/18 03:07:10;;;;;;;34.10;25.47;;;3.50;89.70;;;;;;4950469;28;20206;-80
2023/02/18 03:09:56;;;;;;;64.67;26.30;;;3.50;89.80;;;;;;4944513;28;20248;-79
2023/02/18 03:13:10;;;;;;;30.97;24.17;;;3.50;89.90;;;;;;4951246;28;20276;-80
2023/02/18 03:15:59;;;;;;;41.13;28.83;;;3.50;90.10;;;;;;4918657;29;20222;-79
2023/02/18 03:18:35;;;;;;;50.07;30.87;;;3.50;90.60;;;;;;4950037;28;20215;-80
2023/02/18 03:21:36;;;;;;;48.50;32.23;;;3.50;90.40;;;;;;4950630;28;20622;-80
2023/02/18 03:24:13;;;;;;;41.87;29.80;;;3.50;90.60;;;;;;4931474;29;20209;-80
2023/02/18 03:26:49;;;;;;;37.67;27.63;;;3.50;90.70;;;;;;4952853;28;20264;-80
2023/02/18 03:29:18;;;;;;;43.07;29.80;;;3.40;90.60;;;;;;4950305;28;20243;-80
2023/02/18 03:31:54;;;;;;;49.17;31.03;;;3.40;90.60;;;;;;4932776;29;20214;-80
2023/02/18 03:34:28;;;;;;;49.73;33.70;;;3.40;90.80;;;;;;4951747;28;20611;-79
2023/02/18 03:36:58;;;;;;;48.90;33.53;;;3.40;90.70;;;;;;4931946;29;20212;-80
2023/02/18 03:39:29;;;;;;;49.63;33.13;;;3.50;90.80;;;;;;4956061;28;20210;-80
2023/02/18 03:41:57;;;;;;;49.63;33.30;;;3.40;90.80;;;;;;4956199;28;20582;-80
2023/02/18 03:44:24;;;;;;;48.93;34.50;;;3.40;90.70;;;;;;4954301;28;20257;-80
2023/02/18 03:46:52;;;;;;;47.77;32.50;;;3.40;90.70;;;;;;4937040;29;20200;-80
2023/02/18 03:49:20;;;;;;;44.33;31.37;;;3.30;90.70;;;;;;4932845;29;20213;-80
2023/02/18 03:51:47;;;;;;;43.73;30.93;;;3.30;90.80;;;;;;4956553;28;20216;-81
2023/02/18 03:54:15;;;;;;;47.50;33.07;;;3.30;90.60;;;;;;4956630;28;20217;-81
2023/02/18 03:56:42;;;;;;;43.93;31.10;;;3.30;90.60;;;;;;4958834;28;20212;-80
2023/02/18 03:59:11;;;;;;;42.57;30.37;;;3.30;90.60;;;;;;4948980;28;20201;-81
2023/02/18 04:01:39;;;;;;;46.43;31.43;;;3.30;90.60;;;;;;4951894;28;20221;-80
2023/02/18 04:04:07;;;;;;;49.97;33.00;;;3.30;90.50;;;;;;4956051;28;20197;-81
2023/02/18 04:06:34;;;;;;;43.03;30.73;;;3.30;90.50;;;;;;4953906;28;20225;-80
2023/02/18 04:09:07;;;;;;;47.80;32.50;;;3.30;90.50;;;;;;4955946;28;20235;-80
2023/02/18 04:11:39;;;;;;;45.67;32.03;;;3.20;90.30;;;;;;4929005;29;20214;-80
2023/02/18 04:14:09;;;;;;;42.47;30.53;;;3.20;89.90;;;;;;4931383;29;20581;-80
2023/02/18 04:16:36;;;;;;;42.13;30.50;;;3.10;89.30;;;;;;4951592;28;20640;-80
2023/02/18 04:19:04;;;;;;;44.43;31.13;;;3.00;89.80;;;;;;4949180;28;20205;-80
2023/02/18 04:21:32;;;;;;;40.90;30.07;;;2.90;90.40;;;;;;4926478;29;20229;-79
2023/02/18 04:24:02;;;;;;;42.23;30.73;;;2.90;91.10;;;;;;4950325;28;20205;-80
2023/02/18 04:26:29;;;;;;;43.30;30.47;;;2.80;91.10;;;;;;4948393;28;20225;-80
2023/02/18 04:28:58;;;;;;;41.67;29.10;;;2.80;91.30;;;;;;4953946;28;20527;-80
2023/02/18 04:31:25;;;;;;;41.20;30.27;;;2.70;91.50;;;;;;4956400;28;20204;-79
2023/02/18 04:33:52;;;;;;;38.90;29.97;;;2.70;91.70;;;;;;4944425;29;20654;-80
2023/02/18 04:36:20;;;;;;;38.47;28.10;;;2.70;91.90;;;;;;4943330;29;20209;-80
2023/02/18 04:38:47;;;;;;;39.37;28.10;;;2.70;92.00;;;;;;4964581;28;20260;-80
2023/02/18 04:41:14;;;;;;;37.30;26.90;;;2.70;92.00;;;;;;4955697;28;20293;-80
2023/02/18 04:43:41;;;;;;;38.40;27.33;;;2.70;92.00;;;;;;4950649;29;20216;-80
2023/02/18 04:46:08;;;;;;;34.23;24.37;;;2.70;92.00;;;;;;4947173;29;20205;-80
2023/02/18 04:48:36;;;;;;;37.13;26.47;;;2.70;92.00;;;;;;4933780;29;20220;-79
2023/02/18 04:51:04;;;;;;;36.20;27.97;;;2.70;92.10;;;;;;4954285;28;20314;-80
2023/02/18 04:53:31;;;;;;;36.40;27.40;;;2.60;92.10;;;;;;4942099;29;20919;-81
2023/02/18 04:55:59;;;;;;;38.63;26.37;;;2.60;92.30;;;;;;4960518;28;20292;-81
2023/02/18 04:58:26;;;;;;;34.77;25.77;;;2.60;92.30;;;;;;4942550;29;20272;-80
2023/02/18 05:00:57;;;;;;;36.57;26.53;;;2.60;92.50;;;;;;4939468;29;20659;-81
2023/02/18 05:03:25;;;;;;;37.53;26.53;;;2.60;92.50;;;;;;4949390;29;20239;-81
2023/02/18 05:05:52;;;;;;;39.03;27.10;;;2.60;92.40;;;;;;4953624;29;20288;-80
2023/02/18 05:08:20;;;;;;;35.40;26.53;;;2.70;92.40;;;;;;4949321;28;20209;-81
2023/02/18 05:10:47;;;;;;;35.73;26.50;;;2.60;92.20;;;;;;4943511;29;20243;-82
2023/02/18 05:13:14;;;;;;;36.87;26.77;;;2.70;92.20;;;;;;4955174;28;20668;-82
2023/02/18 05:15:41;;;;;;;38.57;27.47;;;2.70;92.20;;;;;;4950587;28;20211;-82
2023/02/18 05:18:08;;;;;;;37.90;27.30;;;2.70;92.10;;;;;;4951971;28;20204;-81
2023/02/18 05:20:36;;;;;;;40.23;28.40;;;2.70;92.00;;;;;;4938228;29;20642;-80
2023/02/18 05:23:03;;;;;;;36.57;27.93;;;2.70;91.90;;;;;;4947937;28;20212;-79
2023/02/18 05:25:30;;;;;;;39.33;28.87;;;2.70;92.00;;;;;;4947989;28;20538;-80
2023/02/18 05:27:57;;;;;;;37.63;27.93;;;2.60;92.00;;;;;;4951753;28;20342;-80
2023/02/18 05:30:24;;;;;;;41.27;29.70;;;2.60;91.90;;;;;;4953578;28;20210;-80
2023/02/18 05:32:51;;;;;;;37.80;27.27;;;2.60;91.90;;;;;;4940206;29;20636;-81
2023/02/18 05:35:18;;;;;;;41.37;27.80;;;2.60;91.90;;;;;;4942176;29;20229;-79
2023/02/18 05:37:47;;;;;;;38.73;27.97;;;2.60;91.90;;;;;;4949033;28;20224;-80
2023/02/18 05:40:14;;;;;;;38.90;28.67;;;2.60;91.80;;;;;;4949120;28;20208;-80
2023/02/18 05:42:41;;;;;;;40.07;29.90;;;2.50;91.90;;;;;;4957132;28;20209;-79
2023/02/18 05:45:09;;;;;;;38.83;27.60;;;2.60;92.00;;;;;;4947683;28;20214;-81
2023/02/18 05:47:36;;;;;;;46.77;25.07;;;2.60;92.10;;;;;;4938137;29;20216;-80
2023/02/18 05:50:04;;;;;;;37.33;26.77;;;2.50;91.90;;;;;;4940440;29;20221;-80
2023/02/18 05:52:31;;;;;;;39.40;28.53;;;2.50;91.70;;;;;;4957762;28;20222;-80
2023/02/18 05:54:58;;;;;;;36.53;26.27;;;2.50;91.70;;;;;;4940063;29;20686;-80
2023/02/18 05:57:25;;;;;;;38.93;27.57;;;2.40;91.70;;;;;;4953386;28;20547;-80
2023/02/18 05:59:53;;;;;;;36.63;27.17;;;2.40;91.80;;;;;;4950455;28;20211;-81
2023/02/18 06:02:27;;;;;;;49.93;27.77;;;2.40;91.90;;;;;;4933079;29;20211;-80
2023/02/18 06:04:56;;;;;;;39.07;27.47;;;2.40;91.90;;;;;;4936693;29;20206;-80
2023/02/18 06:07:25;;;;;;;38.67;28.07;;;2.40;91.80;;;;;;4940604;29;20212;-80
2023/02/18 06:09:53;;;;;;;41.67;28.90;;;2.30;91.90;;;;;;4951733;28;20241;-80
2023/02/18 06:12:23;;;;;;;34.53;26.73;;;2.30;92.00;;;;;;4955804;28;20246;-80
2023/02/18 06:14:53;;;;;;;37.00;27.33;;;2.30;92.10;;;;;;4935748;29;20201;-80
2023/02/18 06:17:21;;;;;;;41.83;29.27;;;2.30;92.20;;;;;;4948463;29;20221;-80
2023/02/18 06:19:53;;;;;;;39.37;28.23;;;2.30;92.20;;;;;;4953860;28;20218;-80
2023/02/18 06:22:21;;;;;;;40.93;27.70;;;2.30;92.20;;;;;;4958142;28;20265;-80
2023/02/18 06:24:52;;;;;;;36.33;27.30;;;2.30;92.30;;;;;;4934550;29;20708;-81
2023/02/18 06:27:22;;;;;;;39.33;26.57;;;2.30;92.30;;;;;;4946835;29;20232;-80
2023/02/18 06:29:50;;;;;;;37.20;28.10;;;2.40;92.30;;;;;;4950804;28;20653;-80
2023/02/18 06:32:18;;;;;;;37.73;28.07;;;2.40;92.30;;;;;;4959949;28;20229;-80
2023/02/18 06:34:45;;;;;;;39.80;29.23;;;2.40;92.10;;;;;;4955212;28;20245;-80
2023/02/18 06:37:13;;;;;;;42.90;29.90;;;2.40;92.00;;;;;;4952379;28;20217;-81
2023/02/18 06:39:40;;;;;;;40.23;29.50;;;2.50;92.00;;;;;;4943860;29;20281;-81
2023/02/18 06:42:08;;;;;;;40.17;29.47;;;2.50;92.00;;;;;;4942611;29;20221;-81
2023/02/18 06:44:36;;;;;;;39.07;28.53;;;2.50;92.00;;;;;;4961176;28;20238;-80
2023/02/18 06:47:05;;;;;;;37.97;29.00;;;2.60;92.00;;;;;;4957890;28;20302;-81
2023/02/18 06:49:35;;;;;;;42.30;29.10;;;2.60;91.90;;;;;;4959122;28;20217;-81
2023/02/18 06:52:06;;;;;;;41.33;30.43;;;2.60;91.90;;;;;;4940494;29;20218;-81
2023/02/18 06:54:33;;;;;;;38.90;28.10;;;2.70;91.90;;;;;;4961463;28;20218;-81
2023/02/18 06:57:01;;;;;;;37.67;28.40;;;2.70;91.80;;;;;;4956007;28;20562;-80
2023/02/18 06:59:29;;;;;;;39.60;28.67;;;2.70;91.80;;;;;;4953639;28;20277;-81
2023/02/18 07:02:01;;;;;;;44.30;29.23;;;2.80;91.90;;;;;;4937975;29;20217;-81
2023/02/18 07:04:28;;;;;;;41.13;28.87;;;2.80;91.70;;;;;;4952475;28;20238;-80
2023/02/18 07:06:55;;;;;;;39.37;29.00;;;2.80;91.70;;;;;;4937833;28;20284;-81
2023/02/18 07:09:24;;;;;;;39.17;28.57;;;2.80;91.80;;;;;;4954430;28;20332;-81
2023/02/18 07:11:51;;;;;;;40.03;27.87;;;2.80;91.80;;;;;;4964023;28;20228;-81
2023/02/18 07:14:20;;;;;;;39.97;28.87;;;2.90;91.80;;;;;;4954248;28;20840;-81
2023/02/18 07:16:47;;;;;;;37.53;29.43;;;3.00;91.80;;;;;;4958931;28;20264;-81
2023/02/18 07:19:16;;;;;;;40.43;26.90;;;3.00;91.80;;;;;;4944946;29;20206;-81
2023/02/18 07:21:43;;;;;;;36.73;26.40;;;3.10;91.70;;;;;;4959151;28;20226;-83
2023/02/18 07:24:12;;;;;;;36.93;26.63;;;3.10;91.50;;;;;;4952354;28;20210;-81
2023/02/18 07:26:40;;;;;;;33.23;25.13;;;3.20;91.40;;;;;;4948919;28;20246;-80
2023/02/18 07:29:08;;;;;;;30.77;23.63;;;3.40;91.20;;;;;;4941961;29;20224;-80
2023/02/18 07:31:35;;;;;;;32.17;25.60;;;3.60;90.90;;;;;;4950008;28;20273;-80
2023/02/18 07:34:03;;;;;;;32.77;24.93;;;3.70;90.80;;;;;;4959745;28;20244;-80
2023/02/18 07:36:30;;;;;;;35.70;26.90;;;3.90;90.50;;;;;;4938763;29;20227;-80
2023/02/18 07:38:57;;;;;;;32.77;24.90;;;4.00;90.30;;;;;;4958768;28;20213;-81
2023/02/18 07:41:25;;;;;;;35.33;26.03;;;4.20;90.20;;;;;;4948222;28;20272;-81
2023/02/18 07:43:52;;;;;;;34.93;26.07;;;4.30;90.00;;;;;;4951953;28;20249;-81
2023/02/18 07:46:19;;;;;;;33.23;26.00;;;4.40;89.60;;;;;;4952910;28;20212;-84
2023/02/18 07:48:48;;;;;;;34.60;27.37;;;4.50;89.40;;;;;;4933244;29;20240;-82
2023/02/18 07:51:15;;;;;;;37.07;26.80;;;4.50;89.10;;;;;;4949282;28;20550;-82
2023/02/18 07:53:44;;;;;;;42.40;27.17;;;4.50;89.00;;;;;;4940644;29;20289;-81
2023/02/18 07:56:11;;;;;;;37.97;27.27;;;4.50;89.20;;;;;;4946200;28;20213;-81
2023/02/18 07:58:38;;;;;;;37.77;27.73;;;4.60;89.30;;;;;;4955820;28;20220;-82
2023/02/18 08:01:13;;;;;;;36.63;27.57;;;4.60;89.70;;;;;;4951388;28;20242;-81
2023/02/18 08:03:41;;;;;;;34.87;27.27;;;4.60;90.00;;;;;;4957742;29;20206;-82
2023/02/18 08:06:20;;;;;;;36.80;27.87;;;4.70;90.10;;;;;;4940227;29;20220;-82
2023/02/18 08:08:48;;;;;;;34.67;26.80;;;4.70;90.20;;;;;;4940732;29;20236;-82
2023/02/18 08:11:15;;;;;;;35.70;27.27;;;4.80;90.20;;;;;;4952751;28;20573;-81
2023/02/18 08:13:47;;;;;;;37.07;27.83;;;4.80;90.30;;;;;;4956752;28;20572;-81
2023/02/18 08:16:19;;;;;;;40.83;29.33;;;4.80;90.50;;;;;;4954627;28;20550;-81
2023/02/18 08:18:48;;;;;;;36.73;28.43;;;4.90;90.70;;;;;;4939650;29;20216;-82
2023/02/18 08:21:20;;;;;;;41.20;29.43;;;5.00;90.90;;;;;;4963807;28;20220;-81
2023/02/18 08:23:49;;;;;;;42.03;31.07;;;5.10;90.90;;;;;;4941075;28;20205;-81
2023/02/18 08:26:17;;;;;;;44.83;32.80;;;5.20;90.80;;;;;;4947877;28;20628;-81
2023/02/18 08:28:46;;;;;;;47.47;33.13;;;5.30;90.80;;;;;;4950639;28;20211;-81
2023/02/18 08:31:25;;;;;;;49.77;35.40;;;5.40;90.80;;;;;;4936456;29;20305;-81
2023/02/18 08:33:57;;;;;;;57.23;40.97;;;5.50;90.80;;;;;;4951586;28;20235;-81
2023/02/18 08:36:29;;;;;;;55.83;36.90;;;5.70;90.90;;;;;;4955652;28;20198;-80
2023/02/18 08:38:59;;;;;;;50.60;37.23;;;5.80;90.80;;;;;;4953871;28;20264;-80
2023/02/18 08:41:27;;;;;;;50.97;36.37;;;6.00;90.80;;;;;;4951395;28;20281;-81
2023/02/18 08:43:54;;;;;;;50.60;35.13;;;6.20;90.80;;;;;;4933978;29;20632;-80
2023/02/18 08:46:21;;;;;;;52.93;37.50;;;6.40;90.80;;;;;;4954910;28;20533;-81
2023/02/18 08:49:01;;;;;;;53.20;38.33;;;6.50;90.60;;;;;;4936667;29;20207;-81
2023/02/18 08:51:30;;;;;;;52.70;37.03;;;6.70;90.40;;;;;;4966507;28;20280;-80
2023/02/18 08:53:58;;;;;;;48.63;36.87;;;6.80;90.30;;;;;;4949723;28;20305;-80
2023/02/18 08:56:26;;;;;;;59.43;41.43;;;7.00;90.20;;;;;;4947406;28;20556;-81
2023/02/18 08:58:54;;;;;;;54.93;39.53;;;7.10;90.30;;;;;;4949361;28;20210;-81
2023/02/18 09:01:22;;;;;;;55.07;40.40;;;7.20;90.20;;;;;;4948876;28;20223;-81
2023/02/18 09:03:49;;;;;;;58.10;40.93;;;7.30;90.10;;;;;;4930548;29;20214;-81
2023/02/18 09:06:17;;;;;;;55.17;41.83;;;7.40;90.00;;;;;;4949580;28;20213;-80
2023/02/18 09:08:44;;;;;;;63.67;42.87;;;7.60;90.00;;;;;;4934143;29;20254;-81
2023/02/18 09:11:11;;;;;;;59.27;41.93;;;7.80;90.00;;;;;;4952755;28;20588;-81
2023/02/18 09:13:40;;;;;;;61.97;42.03;;;8.00;89.90;;;;;;4954755;28;20248;-81
2023/02/18 09:16:11;;;;;;;56.00;42.30;;;8.20;89.60;;;;;;4955785;28;20570;-81
2023/02/18 09:18:39;;;;;;;62.13;42.63;;;8.40;89.20;;;;;;4952768;28;20211;-81
2023/02/18 09:21:08;;;;;;;58.43;42.60;;;8.50;88.50;;;;;;4959294;28;20229;-80
2023/02/18 09:23:37;;;;;;;58.67;43.33;;;8.60;88.20;;;;;;4964681;28;20242;-81
2023/02/18 09:26:09;;;;;;;63.40;44.33;;;8.80;88.00;;;;;;4939357;29;20317;-81
2023/02/18 09:28:36;;;;;;;57.87;43.83;;;8.90;87.60;;;;;;4949303;28;20226;-80
2023/02/18 09:31:09;;;;;;;60.00;44.27;;;9.10;87.60;;;;;;4947317;28;20215;-81
2023/02/18 09:33:40;;;;;;;62.07;44.93;;;9.20;87.30;;;;;;4941117;28;20349;-80
2023/02/18 09:36:11;;;;;;;61.23;44.23;;;9.40;86.80;;;;;;4952662;29;20217;-81
2023/02/18 09:38:39;;;;;;;57.77;43.43;;;9.60;86.50;;;;;;4959792;28;20208;-81
2023/02/18 09:41:16;;;;;;;57.03;42.47;;;9.80;86.30;;;;;;4957241;28;20260;-80
2023/02/18 09:43:48;;;;;;;58.23;42.73;;;10.00;85.70;;;;;;4951598;28;20287;-80
2023/02/18 09:46:23;;;;;;;55.83;42.47;;;10.10;84.90;;;;;;4949915;28;20247;-80
2023/02/18 09:48:51;;;;;;;54.63;41.13;;;10.30;85.10;;;;;;4952998;28;20197;-80
2023/02/18 09:51:19;;;;;;;52.63;42.00;;;10.40;84.10;;;;;;4955057;28;20210;-80
2023/02/18 09:53:46;;;;;;;55.27;42.23;;;10.50;83.70;;;;;;4940163;29;20208;-80
2023/02/18 09:56:18;;;;;;;56.10;38.80;;;10.60;83.30;;;;;;4949912;28;20209;-81
2023/02/18 09:58:47;;;;;;;52.93;40.00;;;10.80;82.90;;;;;;4953519;28;20212;-80
2023/02/18 10:01:31;;;;;;;53.73;41.47;;;10.90;82.20;;;;;;4933437;28;20661;-81
2023/02/18 10:04:25;;;;;;;57.13;40.63;;;11.00;82.00;;;;;;4952090;28;20214;-80
2023/02/18 10:06:53;;;;;;;52.97;38.63;;;11.10;81.80;;;;;;4934958;29;20217;-80
2023/02/18 10:09:37;;;;;;;51.60;38.93;;;11.30;81.60;;;;;;4949711;28;20308;-80
2023/02/18 10:12:18;;;;;;;52.50;41.07;;;11.40;81.30;;;;;;4930975;29;20221;-80
2023/02/18 10:14:55;;;;;;;50.90;39.93;;;11.50;81.00;;;;;;4955203;28;20201;-80
2023/02/18 10:17:25;;;;;;;50.73;38.00;;;11.70;80.50;;;;;;4955230;28;20549;-81
2023/02/18 10:19:54;;;;;;;46.13;35.60;;;11.80;80.10;;;;;;4949449;28;20198;-81
2023/02/18 10:22:23;;;;;;;44.77;34.67;;;11.90;79.40;;;;;;4927511;28;20281;-80
2023/02/18 10:24:59;;;;;;;41.77;34.27;;;12.00;78.90;;;;;;4949583;28;20210;-80
2023/02/18 10:27:36;;;;;;;40.50;32.47;;;12.00;78.60;;;;;;4955662;28;20275;-80
2023/02/18 10:30:27;;;;;;;47.93;34.57;;;12.10;79.10;;;;;;4928190;29;20629;-79
2023/02/18 10:33:09;;;;;;;43.97;32.83;;;12.10;79.60;;;;;;4946461;28;20220;-79
2023/02/18 10:35:48;;;;;;;50.00;33.87;;;12.10;79.10;;;;;;4933360;29;20295;-78
2023/02/18 10:38:40;;;;;;;41.90;33.60;;;12.20;78.30;;;;;;4953645;29;20208;-80
2023/02/18 10:41:32;;;;;;;45.30;34.20;;;12.20;78.20;;;;;;4943007;28;20212;-79
2023/02/18 10:44:18;;;;;;;47.23;35.67;;;12.20;78.40;;;;;;4953292;28;20229;-79
2023/02/18 10:47:04;;;;;;;46.33;33.77;;;12.20;78.50;;;;;;4936901;28;20594;-80
2023/02/18 10:50:00;;;;;;;47.63;33.73;;;12.30;78.80;;;;;;4949437;28;20197;-80
2023/02/18 10:52:39;;;;;;;42.77;32.83;;;12.40;78.70;;;;;;4949025;28;20659;-78
2023/02/18 10:55:11;;;;;;;50.33;35.30;;;12.40;78.10;;;;;;4955597;28;20213;-78
2023/02/18 10:57:51;;;;;;;42.73;32.03;;;12.50;78.10;;;;;;4937945;29;20324;-80
2023/02/18 11:00:25;;;;;;;42.47;31.93;;;12.60;78.20;;;;;;4932647;29;20222;-79
2023/02/18 11:03:12;;;;;;;40.80;30.00;;;12.70;77.70;;;;;;4947737;28;21544;-80
2023/02/18 11:05:40;;;;;;;45.40;33.83;;;12.80;77.30;;;;;;4946186;29;20214;-78
2023/02/18 11:08:13;;;;;;;44.23;32.33;;;12.90;77.00;;;;;;4952569;28;20283;-79
2023/02/18 11:10:44;;;;;;;43.17;31.87;;;13.00;76.40;;;;;;4954857;28;20316;-79
2023/02/18 11:13:14;;;;;;;41.33;32.20;;;13.10;76.10;;;;;;4952220;28;20217;-80
2023/02/18 11:16:04;;;;;;;41.50;31.90;;;13.10;75.40;;;;;;4951679;28;20212;-79
2023/02/18 11:18:41;;;;;;;43.43;33.30;;;13.10;75.60;;;;;;4953220;29;20222;-78
2023/02/18 11:21:28;;;;;;;43.00;31.80;;;13.20;75.90;;;;;;4929338;29;20372;-79
2023/02/18 11:24:04;;;;;;;45.87;34.63;;;13.20;76.10;;;;;;4941878;28;20197;-80
2023/02/18 11:26:35;;;;;;;46.63;33.33;;;13.30;75.60;;;;;;4943932;28;20569;-80
2023/02/18 11:29:07;;;;;;;48.07;35.93;;;13.40;75.20;;;;;;4930524;28;20237;-80
2023/02/18 11:31:44;;;;;;;50.13;36.03;;;13.40;75.20;;;;;;4941908;28;20278;-79
2023/02/18 11:34:31;;;;;;;53.17;37.47;;;13.50;75.00;;;;;;4952322;28;20233;-80
2023/02/18 11:37:31;;;;;;;52.73;41.20;;;13.50;74.90;;;;;;4953695;28;20573;-80
2023/02/18 11:39:58;;;;;;;54.27;38.97;;;13.60;74.90;;;;;;4917407;28;20213;-81
2023/02/18 11:42:27;;;;;;;53.00;37.97;;;13.70;74.90;;;;;;4943215;28;20675;-79
2023/02/18 11:44:59;;;;;;;50.93;38.67;;;13.80;74.90;;;;;;4937269;28;20229;-80
2023/02/18 11:47:36;;;;;;;52.57;38.27;;;13.90;74.70;;;;;;4948022;28;20217;-80
2023/02/18 11:50:19;;;;;;;57.03;40.57;;;14.00;73.80;;;;;;4944205;28;20203;-79
2023/02/18 11:52:49;;;;;;;54.93;38.93;;;14.00;73.50;;;;;;4928449;28;20222;-81
2023/02/18 11:55:21;;;;;;;54.30;38.27;;;14.00;73.70;;;;;;4949080;28;20240;-79
2023/02/18 11:58:01;;;;;;;53.97;38.40;;;14.10;73.30;;;;;;4930789;29;20614;-80
2023/02/18 12:00:45;;;;;;;54.93;39.70;;;14.10;73.50;;;;;;4934524;29;20629;-79
2023/02/18 12:03:34;;;;;;;55.40;40.87;;;14.20;73.40;;;;;;4931268;28;20563;-79
2023/02/18 12:06:10;;;;;;;63.83;44.10;;;14.30;73.20;;;;;;4946138;28;20226;-80
2023/02/18 12:08:59;;;;;;;65.17;44.40;;;14.40;72.80;;;;;;4948753;28;20656;-80
2023/02/18 12:11:38;;;;;;;58.20;42.50;;;14.40;73.40;;;;;;4949147;28;20207;-80
2023/02/18 12:14:21;;;;;;;55.23;40.37;;;14.40;73.10;;;;;;4944388;28;20202;-79
2023/02/18 12:17:22;;;;;;;54.10;40.57;;;14.50;73.00;;;;;;4947714;28;20199;-80
2023/02/18 12:20:16;;;;;;;51.53;37.70;;;14.50;72.80;;;;;;4950538;28;20600;-80
2023/02/18 12:22:51;;;;;;;57.73;41.17;;;14.50;73.10;;;;;;4948859;28;20679;-80
2023/02/18 12:26:12;;;;;;;60.60;40.87;;;14.50;72.90;;;;;;4941435;28;20210;-81
2023/02/18 12:28:42;;;;;;;50.23;37.10;;;14.60;72.70;;;;;;4897581;29;20206;-80
2023/02/18 12:31:47;;;;;;;50.37;39.13;;;14.60;73.30;;;;;;4921835;29;20619;-79
2023/02/18 12:34:50;;;;;;;53.97;38.67;;;14.70;73.10;;;;;;4953484;28;20209;-78
2023/02/18 12:37:26;;;;;;;51.37;35.47;;;14.80;71.80;;;;;;4947261;28;20213;-80
2023/02/18 12:40:39;;;;;;;42.60;31.10;;;14.80;71.20;;;;;;4942228;28;20209;-79
2023/02/18 12:43:32;;;;;;;44.17;32.27;;;14.80;71.50;;;;;;4917445;28;20245;-80
2023/02/18 12:46:19;;;;;;;43.83;30.87;;;14.90;70.30;;;;;;4950685;28;20202;-80
2023/02/18 12:48:59;;;;;;;40.83;30.10;;;15.00;70.90;;;;;;4952814;28;20658;-80
2023/02/18 12:51:41;;;;;;;42.53;30.83;;;15.00;70.00;;;;;;4946599;28;20201;-78
2023/02/18 12:54:31;;;;;;;41.53;30.70;;;15.00;69.90;;;;;;4953828;28;20199;-79
2023/02/18 12:57:05;;;;;;;37.70;29.30;;;15.10;69.30;;;;;;4948365;28;20269;-80
2023/02/18 12:59:51;;;;;;;39.70;30.97;;;15.10;69.40;;;;;;4954642;28;20224;-78
2023/02/18 13:02:31;;;;;;;39.10;29.63;;;15.20;69.10;;;;;;4950165;28;20222;-79
2023/02/18 13:05:25;;;;;;;34.23;25.93;;;15.30;68.80;;;;;;4950379;28;20305;-78